Time;durP1;ratioP1;P1;durP2;ratioP2;P2;SDS_P1;SDS_P2;PMS_P1;PMS_P2;Temp;Humidity;BMP_temperature;BMP_pressure;BME280_temperature;BME280_humidity;BME280_pressure;Samples;Min_cycle;Max_cycle;Signal;HPM_P1;HPM_P2
2022/07/03 00:02:52;;;;;;;0.20;0.10;;;22.10;99.90;;;;;;21243093;28;21109;-73
2022/07/03 00:12:56;;;;;;;0.20;0.00;;;22.10;99.90;;;;;;21243749;28;20191;-71
2022/07/03 00:23:05;;;;;;;0.20;0.00;;;22.50;99.90;;;;;;21241156;28;20246;-72
2022/07/03 00:33:10;;;;;;;0.20;0.00;;;22.30;99.90;;;;;;21240163;28;20211;-71
2022/07/03 00:43:16;;;;;;;0.20;0.00;;;22.10;99.90;;;;;;21239980;28;20211;-72
2022/07/03 00:53:28;;;;;;;0.20;0.00;;;22.10;99.90;;;;;;21240298;28;20310;-73
2022/07/03 01:03:40;;;;;;;0.20;0.00;;;22.10;99.90;;;;;;21253671;28;20180;-72
2022/07/03 01:13:55;;;;;;;0.20;0.00;;;22.00;99.90;;;;;;21254139;28;20229;-72
2022/07/03 01:24:31;;;;;;;0.20;0.00;;;22.30;99.90;;;;;;21254201;28;20222;-73
2022/07/03 01:34:41;;;;;;;0.20;0.10;;;22.20;99.90;;;;;;21235849;28;20207;-73
2022/07/03 01:44:48;;;;;;;0.20;0.00;;;22.10;99.90;;;;;;21255284;28;20183;-74
2022/07/03 01:54:55;;;;;;;0.20;0.10;;;22.00;99.90;;;;;;21255576;28;20250;-72
2022/07/03 02:05:03;;;;;;;0.20;0.00;;;22.20;99.90;;;;;;21255825;28;20203;-70
2022/07/03 02:15:10;;;;;;;0.20;0.10;;;21.90;99.90;;;;;;21252761;28;20242;-73
2022/07/03 02:25:19;;;;;;;0.20;0.10;;;21.60;99.90;;;;;;21254417;28;20243;-73
2022/07/03 02:35:28;;;;;;;0.20;0.00;;;21.60;99.90;;;;;;21252803;28;20231;-71
2022/07/03 02:45:43;;;;;;;0.20;0.07;;;21.60;99.90;;;;;;21251975;28;20202;-72
2022/07/03 02:55:48;;;;;;;0.20;0.00;;;21.50;99.90;;;;;;21251941;28;20245;-72
2022/07/03 03:05:55;;;;;;;0.20;0.00;;;21.30;99.90;;;;;;21251542;28;20214;-72
2022/07/03 03:16:06;;;;;;;0.20;0.10;;;21.10;99.90;;;;;;21248101;28;20230;-72
2022/07/03 03:26:10;;;;;;;0.20;0.00;;;21.10;99.90;;;;;;21248394;28;20201;-76
2022/07/03 03:36:18;;;;;;;0.20;0.10;;;21.10;99.90;;;;;;21249008;28;20223;-74
2022/07/03 03:46:21;;;;;;;0.20;0.10;;;21.10;99.90;;;;;;21246655;28;20207;-73
2022/07/03 03:56:26;;;;;;;0.20;0.00;;;21.00;99.90;;;;;;21246640;28;20302;-73
2022/07/03 04:06:30;;;;;;;0.20;0.10;;;20.90;99.90;;;;;;21245935;28;20232;-73
2022/07/03 04:16:36;;;;;;;0.20;0.00;;;20.70;99.90;;;;;;21227416;28;20242;-73
2022/07/03 04:26:40;;;;;;;0.20;0.10;;;20.60;99.90;;;;;;21244133;28;20203;-73
2022/07/03 04:36:45;;;;;;;0.20;0.00;;;20.70;99.90;;;;;;21254399;28;20249;-74
2022/07/03 04:46:49;;;;;;;0.20;0.00;;;20.80;99.90;;;;;;21259248;28;20263;-74
2022/07/03 04:56:54;;;;;;;0.20;0.10;;;21.10;99.90;;;;;;21259851;28;20279;-72
2022/07/03 05:06:58;;;;;;;0.20;0.10;;;21.10;99.90;;;;;;21260004;27;20180;-73
2022/07/03 05:17:03;;;;;;;0.20;0.00;;;21.50;99.90;;;;;;21257859;28;20243;-73
2022/07/03 05:27:07;;;;;;;0.20;0.00;;;21.70;99.90;;;;;;21258839;28;20207;-72
2022/07/03 05:37:13;;;;;;;0.20;0.00;;;22.10;99.90;;;;;;21256335;28;20249;-73
2022/07/03 05:47:16;;;;;;;0.20;0.00;;;22.40;99.90;;;;;;21254357;28;20211;-73
2022/07/03 05:57:21;;;;;;;0.20;0.00;;;22.60;99.90;;;;;;21254975;28;20278;-68
2022/07/03 06:07:25;;;;;;;0.20;0.00;;;23.30;99.90;;;;;;21255212;28;20216;-72
2022/07/03 06:17:30;;;;;;;0.20;0.00;;;23.70;99.90;;;;;;21253611;28;20251;-73
2022/07/03 06:27:34;;;;;;;0.20;0.10;;;23.90;99.90;;;;;;21252610;28;20499;-73
2022/07/03 06:37:40;;;;;;;0.20;0.00;;;24.00;99.90;;;;;;21252416;28;20941;-73
2022/07/03 06:47:44;;;;;;;0.20;0.00;;;24.10;99.90;;;;;;21251800;28;20194;-70
2022/07/03 06:57:49;;;;;;;0.20;0.00;;;24.50;99.90;;;;;;21249035;28;20241;-71
2022/07/03 07:07:53;;;;;;;0.20;0.00;;;24.50;99.90;;;;;;21249029;28;20218;-72
2022/07/03 07:17:58;;;;;;;0.20;0.00;;;24.60;99.90;;;;;;21246754;28;20249;-71
2022/07/03 07:28:02;;;;;;;0.20;0.10;;;24.60;99.90;;;;;;21247031;28;20260;-72
2022/07/03 07:38:07;;;;;;;0.20;0.00;;;24.50;99.90;;;;;;21244813;28;20226;-71
2022/07/03 07:48:12;;;;;;;0.20;0.00;;;24.50;99.90;;;;;;21244178;28;20198;-71
2022/07/03 07:58:17;;;;;;;0.20;0.00;;;24.40;99.90;;;;;;21241258;28;20238;-71
2022/07/03 08:08:21;;;;;;;0.20;0.00;;;24.70;99.90;;;;;;21221121;28;20271;-71
2022/07/03 08:18:26;;;;;;;0.20;0.00;;;25.20;99.90;;;;;;21241618;28;20227;-71
2022/07/03 08:28:30;;;;;;;0.20;0.00;;;25.60;99.90;;;;;;21242070;28;20254;-71
2022/07/03 08:38:35;;;;;;;0.20;0.00;;;25.50;99.90;;;;;;21241288;28;20242;-72
2022/07/03 08:48:42;;;;;;;0.20;0.00;;;24.90;99.90;;;;;;21241749;28;20207;-71
2022/07/03 08:58:47;;;;;;;0.20;0.00;;;25.30;99.90;;;;;;21240125;28;20295;-72
2022/07/03 09:08:54;;;;;;;0.20;0.00;;;25.80;99.90;;;;;;21241753;28;20225;-71
2022/07/03 09:18:59;;;;;;;0.20;0.10;;;25.80;99.90;;;;;;21247148;28;20223;-71
2022/07/03 09:29:09;;;;;;;0.20;0.00;;;25.40;99.90;;;;;;21259694;28;20198;-69
2022/07/03 09:39:19;;;;;;;0.20;0.10;;;25.50;99.90;;;;;;21256498;28;20223;-68
2022/07/03 09:49:23;;;;;;;0.20;0.00;;;25.40;99.90;;;;;;21258089;28;20191;-71
2022/07/03 09:59:28;;;;;;;0.20;0.00;;;25.50;99.90;;;;;;21254646;28;20219;-70
2022/07/03 10:09:33;;;;;;;0.20;0.00;;;25.80;99.90;;;;;;21251243;28;20244;-70
2022/07/03 10:19:40;;;;;;;0.20;0.00;;;26.00;99.90;;;;;;21250145;28;20243;-69
2022/07/03 10:29:44;;;;;;;0.20;0.00;;;26.40;99.90;;;;;;21251770;28;20203;-69
2022/07/03 10:39:56;;;;;;;0.20;0.00;;;26.60;99.90;;;;;;21254120;28;20230;-69
2022/07/03 10:50:03;;;;;;;0.20;0.00;;;26.60;99.90;;;;;;21252999;28;20195;-70
2022/07/03 11:00:26;;;;;;;0.20;0.00;;;26.70;99.90;;;;;;21250641;28;20249;-71
2022/07/03 11:10:35;;;;;;;0.20;0.00;;;27.10;99.90;;;;;;21250017;28;20191;-69
2022/07/03 11:21:11;;;;;;;0.20;0.10;;;27.80;99.90;;;;;;21247785;28;20223;-71
2022/07/03 11:31:19;;;;;;;0.20;0.08;;;28.50;99.90;;;;;;21247212;28;20188;-69
2022/07/03 11:41:25;;;;;;;0.20;0.00;;;28.20;99.90;;;;;;21247677;28;20305;-70
2022/07/03 11:51:29;;;;;;;0.20;0.10;;;29.30;99.90;;;;;;21248416;28;20195;-70
2022/07/03 12:01:37;;;;;;;0.20;0.10;;;29.70;99.90;;;;;;21245937;28;20227;-70
2022/07/03 12:11:41;;;;;;;0.20;0.00;;;29.80;99.90;;;;;;21247006;28;20199;-70
2022/07/03 12:21:46;;;;;;;0.20;0.00;;;30.60;99.90;;;;;;21246508;28;20251;-70
2022/07/03 12:31:52;;;;;;;0.20;0.00;;;30.80;99.90;;;;;;21244575;28;20198;-69
2022/07/03 12:41:57;;;;;;;0.20;0.00;;;31.00;99.90;;;;;;21245666;28;20223;-71
2022/07/03 12:52:02;;;;;;;0.20;0.00;;;30.50;99.90;;;;;;21246174;28;20192;-71
2022/07/03 13:02:07;;;;;;;0.20;0.00;;;31.30;99.90;;;;;;21260825;27;20295;-69
2022/07/03 13:12:23;;;;;;;0.20;0.00;;;32.20;99.90;;;;;;21262297;28;20187;-67
2022/07/03 13:22:28;;;;;;;0.20;0.00;;;31.10;99.90;;;;;;21261852;28;20245;-70
2022/07/03 13:32:32;;;;;;;0.20;0.00;;;31.80;99.90;;;;;;21260485;28;20238;-71
2022/07/03 13:42:37;;;;;;;0.20;0.00;;;32.50;99.90;;;;;;21259405;28;20223;-70
2022/07/03 13:52:41;;;;;;;0.20;0.00;;;33.00;99.90;;;;;;21254693;28;20215;-70
2022/07/03 14:02:50;;;;;;;0.20;0.00;;;33.00;99.90;;;;;;21249946;28;20256;-70
2022/07/03 14:12:54;;;;;;;0.20;0.00;;;32.70;99.90;;;;;;21251788;28;20209;-70
2022/07/03 14:22:59;;;;;;;0.20;0.00;;;33.20;99.90;;;;;;21251996;28;20251;-70
2022/07/03 14:33:03;;;;;;;0.20;0.00;;;33.50;99.90;;;;;;21248795;28;20211;-71
2022/07/03 14:43:08;;;;;;;0.20;0.00;;;34.70;99.90;;;;;;21248450;28;20265;-72
2022/07/03 14:53:12;;;;;;;0.20;0.00;;;34.20;99.90;;;;;;21248282;28;20223;-70
2022/07/03 15:03:28;;;;;;;0.20;0.00;;;32.80;99.90;;;;;;21248250;28;20238;-72
2022/07/03 15:13:33;;;;;;;0.20;0.00;;;33.30;99.90;;;;;;21248188;28;20191;-72
2022/07/03 15:23:39;;;;;;;0.20;0.00;;;33.20;99.90;;;;;;21247701;28;20714;-70
2022/07/03 15:33:42;;;;;;;0.20;0.00;;;33.50;99.90;;;;;;21244833;28;20215;-71
2022/07/03 15:44:03;;;;;;;0.20;0.00;;;33.40;99.90;;;;;;21245124;28;20235;-73
2022/07/03 15:54:10;;;;;;;0.20;0.00;;;33.20;99.90;;;;;;21244540;28;20195;-67
2022/07/03 16:04:20;;;;;;;0.20;0.00;;;33.70;99.90;;;;;;21244586;28;20233;-72
2022/07/03 16:14:30;;;;;;;0.20;0.00;;;32.30;99.90;;;;;;21241877;28;20183;-75
2022/07/03 16:24:36;;;;;;;0.20;0.00;;;31.10;99.90;;;;;;21235551;28;20210;-73
2022/07/03 16:34:47;;;;;;;0.20;0.00;;;31.00;99.90;;;;;;21239920;28;20199;-71
2022/07/03 16:44:53;;;;;;;0.20;0.00;;;32.60;99.90;;;;;;21239589;28;20226;-72
2022/07/03 16:54:57;;;;;;;0.20;0.00;;;32.30;99.90;;;;;;21242897;28;20180;-72
2022/07/03 17:05:03;;;;;;;0.20;0.00;;;30.50;99.90;;;;;;21242925;28;20226;-69
2022/07/03 17:15:08;;;;;;;0.20;0.03;;;29.20;99.90;;;;;;21243377;28;20585;-72
2022/07/03 17:25:22;;;;;;;0.20;0.00;;;28.20;99.90;;;;;;21241204;28;20234;-72
2022/07/03 17:35:29;;;;;;;0.20;0.00;;;27.90;99.90;;;;;;21242313;28;20179;-73
2022/07/03 17:45:34;;;;;;;0.20;0.10;;;27.40;99.90;;;;;;21244853;28;20218;-71
2022/07/03 17:55:38;;;;;;;0.20;0.00;;;27.50;99.90;;;;;;21234473;28;20211;-72
2022/07/03 18:05:47;;;;;;;0.20;0.00;;;27.60;99.90;;;;;;21186727;28;20242;-72
2022/07/03 18:15:56;;;;;;;0.20;0.10;;;29.00;99.90;;;;;;21242700;28;20224;-72
2022/07/03 18:26:04;;;;;;;0.20;0.00;;;29.20;99.90;;;;;;21250599;28;20233;-70
2022/07/03 18:36:09;;;;;;;0.20;0.00;;;28.10;99.90;;;;;;21253749;28;20210;-71
2022/07/03 18:46:14;;;;;;;0.20;0.10;;;27.80;99.90;;;;;;21249572;28;20239;-72
2022/07/03 18:56:30;;;;;;;0.20;0.00;;;26.70;99.90;;;;;;21246579;28;20187;-73
2022/07/03 19:06:39;;;;;;;0.20;0.10;;;26.30;99.90;;;;;;21237119;28;20195;-74
2022/07/03 19:16:44;;;;;;;0.20;0.00;;;26.40;99.90;;;;;;21246678;28;20237;-73
2022/07/03 19:26:50;;;;;;;0.20;0.00;;;26.40;99.90;;;;;;21246044;28;20194;-73
2022/07/03 19:36:53;;;;;;;0.20;0.00;;;26.40;99.90;;;;;;21243735;28;20188;-74
2022/07/03 19:46:59;;;;;;;0.20;0.00;;;26.40;99.90;;;;;;21245675;28;20203;-72
2022/07/03 19:57:23;;;;;;;0.20;0.00;;;26.00;99.90;;;;;;21244796;28;20261;-72
2022/07/03 20:07:28;;;;;;;0.20;0.10;;;25.80;99.90;;;;;;21245470;28;20211;-72
2022/07/03 20:17:32;;;;;;;0.20;0.00;;;25.60;99.90;;;;;;21244613;28;20298;-72
2022/07/03 20:27:38;;;;;;;0.20;0.00;;;25.60;99.90;;;;;;21243802;28;20221;-73
2022/07/03 20:37:42;;;;;;;0.20;0.00;;;25.60;99.90;;;;;;21242297;28;20246;-74
2022/07/03 20:47:47;;;;;;;0.20;0.00;;;25.50;99.90;;;;;;21245036;28;20199;-74
2022/07/03 20:57:51;;;;;;;0.20;0.00;;;25.60;99.90;;;;;;21242556;28;20218;-73
2022/07/03 21:07:56;;;;;;;0.20;0.00;;;27.00;99.90;;;;;;21241536;28;20195;-73
2022/07/03 21:17:59;;;;;;;0.20;0.00;;;27.10;99.90;;;;;;21251085;28;20239;-74
2022/07/03 21:28:05;;;;;;;0.20;0.10;;;27.20;99.90;;;;;;21259298;28;20219;-70
2022/07/03 21:38:09;;;;;;;0.20;0.00;;;27.30;99.90;;;;;;21257866;28;20219;-72
2022/07/03 21:48:14;;;;;;;0.20;0.00;;;27.10;99.90;;;;;;21258818;28;20214;-73
2022/07/03 21:58:18;;;;;;;0.20;0.10;;;26.90;99.90;;;;;;21256457;28;20242;-73
2022/07/03 22:08:23;;;;;;;0.20;0.00;;;26.10;99.90;;;;;;21257121;28;20219;-73
2022/07/03 22:18:27;;;;;;;0.20;0.00;;;25.70;99.90;;;;;;21256156;28;20242;-74
2022/07/03 22:28:32;;;;;;;0.20;0.00;;;25.80;99.90;;;;;;21253930;28;20188;-73
2022/07/03 22:38:36;;;;;;;0.20;0.00;;;26.10;99.90;;;;;;21255098;28;20219;-73
2022/07/03 22:48:41;;;;;;;0.20;0.00;;;26.10;99.90;;;;;;21257820;28;20207;-74
2022/07/03 22:58:45;;;;;;;0.20;0.00;;;25.80;99.90;;;;;;21257443;28;20223;-74
2022/07/03 23:08:50;;;;;;;0.20;0.00;;;25.40;99.90;;;;;;21256462;28;20191;-74
2022/07/03 23:18:54;;;;;;;0.20;0.10;;;25.30;99.90;;;;;;21254189;28;20236;-73
2022/07/03 23:28:59;;;;;;;0.20;0.00;;;25.00;99.90;;;;;;21254852;28;20191;-73
2022/07/03 23:39:03;;;;;;;0.20;0.10;;;24.70;99.90;;;;;;21253378;28;20231;-73
2022/07/03 23:59:29;;;;;;;0.20;0.00;;;24.30;99.90;;;;;;21248477;28;20239;-73
